INFORMACIÓN METAR y TAF
METAR FOR LECH
ADDS - METARS form results

(0245 UTC 25 April 2018)
Data provider http://aviationweather.gov/adds/metars/
 
METAR text: LECH 250230Z AUTO 00000KT 9999 NCD 12/07 Q1017
Conditions at: LECH (CASTELLON , ES) observed 0230 UTC 25 April 2018
Temperature: 12.0°C (54°F)
Dewpoint: 7.0°C (45°F) [RH = 71%]
Pressure (altimeter): 30.03 inches Hg (1017.0 mb)
Winds: calm
Visibility: 6 or more miles (10+ km)
Ceiling: at least 12,000 feet AGL
Clouds: sky clear below 12,000 feet AGL
Weather: no significant weather observed at this time

METAR text: LECH 250200Z AUTO VRB01KT 9000 NCD 12/06 Q1017
Conditions at: LECH (CASTELLON , ES) observed 0200 UTC 25 April 2018
Temperature: 12.0°C (54°F)
Dewpoint: 6.0°C (43°F) [RH = 67%]
Pressure (altimeter): 30.03 inches Hg (1017.0 mb)
Winds: variable direction winds at 1 MPH (1 knots; 0.5 m/s)
Visibility: 6 miles (9 km)
Ceiling: at least 12,000 feet AGL
Clouds: sky clear below 12,000 feet AGL
Weather: no significant weather observed at this time

 MAPA DE AEROPUERTO

 INFORMACIÓN DE PISTA

 FRECUANCIAS DEL AEROPUERTO

 RADIO AYUDAS DEL AEROPUERTO